createdAt,value
2022-07-28T00:00:38.027Z,57.18
2022-07-28T00:03:04.734Z,57.81
2022-07-28T00:05:31.622Z,57.75
2022-07-28T00:07:58.015Z,58.09
2022-07-28T00:10:24.475Z,58.22
2022-07-28T00:12:50.962Z,57.96
2022-07-28T00:15:17.397Z,58.09
2022-07-28T00:17:43.868Z,58.21
2022-07-28T00:20:10.975Z,58.48
2022-07-28T00:22:44.663Z,58.85
2022-07-28T00:25:11.433Z,59.02
2022-07-28T00:27:38.278Z,59.28
2022-07-28T00:30:07.461Z,59.20
2022-07-28T00:32:34.311Z,59.25
2022-07-28T00:35:00.922Z,59.21
2022-07-28T00:37:29.006Z,59.61
2022-07-28T00:39:56.151Z,59.82
2022-07-28T00:42:22.661Z,59.88
2022-07-28T00:44:49.283Z,59.79
2022-07-28T00:47:15.628Z,59.78
2022-07-28T00:49:44.610Z,59.67
2022-07-28T00:52:12.362Z,59.83
2022-07-28T00:54:39.078Z,59.72
2022-07-28T00:57:06.373Z,60.26
2022-07-28T00:59:33.023Z,60.54
2022-07-28T01:02:02.019Z,60.75
2022-07-28T01:04:29.666Z,60.22
2022-07-28T01:07:15.017Z,60.23
2022-07-28T01:09:52.868Z,60.25
2022-07-28T01:12:45.844Z,60.44
2022-07-28T01:15:29.232Z,60.42
2022-07-28T01:18:25.850Z,60.51
2022-07-28T01:21:10.434Z,60.44
2022-07-28T01:24:09.386Z,60.59
2022-07-28T01:26:59.561Z,60.75
2022-07-28T01:29:50.334Z,60.80
2022-07-28T01:32:21.027Z,60.94
2022-07-28T01:34:56.142Z,60.94
2022-07-28T01:37:28.259Z,61.19
2022-07-28T01:39:58.614Z,61.32
2022-07-28T01:42:31.778Z,61.35
2022-07-28T01:45:00.719Z,61.58
2022-07-28T01:47:28.915Z,61.97
2022-07-28T01:49:59.890Z,61.82
2022-07-28T01:52:27.476Z,61.48
2022-07-28T01:54:56.743Z,60.89
2022-07-28T01:57:25.060Z,61.36
2022-07-28T01:59:53.347Z,61.61
2022-07-28T02:02:20.879Z,61.54
2022-07-28T02:04:50.027Z,61.68
2022-07-28T02:07:19.306Z,61.47
2022-07-28T02:09:46.882Z,61.25
2022-07-28T02:12:16.660Z,61.10
2022-07-28T02:14:46.240Z,61.26
2022-07-28T02:17:19.050Z,61.24
2022-07-28T02:19:47.598Z,61.26
2022-07-28T02:22:15.080Z,61.42
2022-07-28T02:24:44.287Z,61.22
2022-07-28T02:27:24.691Z,61.33
2022-07-28T02:30:00.862Z,61.54
2022-07-28T02:32:38.013Z,61.42
2022-07-28T02:35:39.873Z,61.43
2022-07-28T02:38:20.117Z,61.26
2022-07-28T02:40:49.289Z,61.38
2022-07-28T02:43:20.986Z,61.58
2022-07-28T02:45:53.504Z,61.96
2022-07-28T02:48:27.792Z,61.75
2022-07-28T02:50:56.578Z,61.45
2022-07-28T02:53:24.046Z,61.45
2022-07-28T02:55:52.629Z,61.61
2022-07-28T02:58:21.883Z,61.68
2022-07-28T03:00:50.597Z,61.38
2022-07-28T03:03:21.669Z,61.18
2022-07-28T03:05:49.090Z,61.33
2022-07-28T03:08:18.725Z,61.34
2022-07-28T03:10:45.661Z,61.47
2022-07-28T03:13:12.091Z,61.22
2022-07-28T03:15:38.473Z,61.12
2022-07-28T03:18:05.986Z,61.37
2022-07-28T03:20:33.123Z,61.36
2022-07-28T03:22:59.937Z,61.29
2022-07-28T03:25:43.411Z,61.26
2022-07-28T03:28:12.991Z,61.66
2022-07-28T03:30:43.197Z,61.28
2022-07-28T03:33:10.242Z,61.60
2022-07-28T03:35:39.916Z,61.58
2022-07-28T03:38:14.497Z,61.48
2022-07-28T03:40:46.548Z,61.59
2022-07-28T03:43:16.602Z,62.19
2022-07-28T03:45:46.615Z,61.82
2022-07-28T03:48:13.865Z,61.79
2022-07-28T03:50:40.545Z,61.85
2022-07-28T03:53:14.212Z,61.80
2022-07-28T03:55:40.557Z,61.94
2022-07-28T03:58:07.267Z,61.87
2022-07-28T04:00:34.115Z,61.80
2022-07-28T04:03:00.541Z,61.87
2022-07-28T04:05:27.203Z,61.85
2022-07-28T04:07:53.556Z,61.83
2022-07-28T04:10:20.122Z,61.66
2022-07-28T04:12:51.873Z,61.74
2022-07-28T04:15:19.790Z,62.13
2022-07-28T04:17:47.358Z,62.01
2022-07-28T04:20:14.122Z,61.61
2022-07-28T04:22:40.462Z,61.87
2022-07-28T04:25:07.507Z,61.73
2022-07-28T04:27:36.941Z,61.54
2022-07-28T04:30:10.022Z,61.45
2022-07-28T04:32:36.453Z,61.38
2022-07-28T04:35:02.806Z,61.51
2022-07-28T04:37:32.393Z,61.32
2022-07-28T04:39:59.374Z,61.33
2022-07-28T04:42:26.246Z,61.74
2022-07-28T04:44:52.813Z,61.66
2022-07-28T04:47:19.307Z,61.63
2022-07-28T04:49:45.830Z,61.51
2022-07-28T04:52:12.417Z,61.26
2022-07-28T04:54:38.825Z,61.59
2022-07-28T04:57:10.481Z,61.54
2022-07-28T04:59:39.681Z,61.75
2022-07-28T05:02:06.553Z,61.56
2022-07-28T05:04:33.393Z,61.83
2022-07-28T05:07:01.658Z,61.81
2022-07-28T05:09:34.431Z,61.71
2022-07-28T05:12:00.765Z,61.94
2022-07-28T05:14:27.131Z,61.50
2022-07-28T05:16:53.772Z,61.13
2022-07-28T05:19:20.308Z,61.05
2022-07-28T05:21:46.655Z,60.99
2022-07-28T05:24:13.528Z,60.92
2022-07-28T05:26:40.481Z,60.49
2022-07-28T05:29:07.000Z,60.73
2022-07-28T05:31:33.432Z,60.77
2022-07-28T05:33:59.897Z,60.83
2022-07-28T05:36:26.813Z,61.24
2022-07-28T05:38:53.671Z,61.15
2022-07-28T05:41:20.098Z,60.38
2022-07-28T05:43:46.484Z,60.25
2022-07-28T05:46:12.993Z,60.60
2022-07-28T05:48:39.449Z,59.86
2022-07-28T05:51:05.807Z,59.78
2022-07-28T05:53:32.705Z,59.85
2022-07-28T05:56:01.294Z,59.77
2022-07-28T05:58:28.656Z,60.12
2022-07-28T06:00:59.354Z,60.31
2022-07-28T06:03:25.713Z,59.84
2022-07-28T06:05:59.222Z,59.89
2022-07-28T06:08:40.926Z,59.06
2022-07-28T06:11:07.916Z,58.43
2022-07-28T06:13:34.483Z,58.04
2022-07-28T06:16:00.959Z,57.70
2022-07-28T06:18:27.335Z,56.84
2022-07-28T06:20:53.783Z,56.85
2022-07-28T06:23:20.457Z,56.63
2022-07-28T06:25:47.398Z,56.04
2022-07-28T06:28:14.081Z,55.72
2022-07-28T06:30:41.027Z,56.30
2022-07-28T06:33:07.383Z,55.39
2022-07-28T06:35:44.947Z,54.54
2022-07-28T06:38:17.599Z,53.70
2022-07-28T06:40:44.011Z,53.18
2022-07-28T06:43:10.338Z,53.67
2022-07-28T06:45:36.745Z,52.87
2022-07-28T06:48:03.067Z,52.82
2022-07-28T06:50:29.618Z,52.38
2022-07-28T06:52:58.966Z,52.91
2022-07-28T06:55:26.083Z,52.76
2022-07-28T06:58:01.430Z,52.13
2022-07-28T07:00:27.929Z,52.07
2022-07-28T07:02:54.842Z,52.20
2022-07-28T07:05:21.434Z,50.39
2022-07-28T07:07:48.011Z,50.74
2022-07-28T07:10:14.420Z,51.46
2022-07-28T07:12:40.818Z,51.28
2022-07-28T07:15:08.368Z,50.96
2022-07-28T07:17:34.956Z,50.30
2022-07-28T07:20:01.357Z,50.39
2022-07-28T07:22:28.032Z,49.21
2022-07-28T07:24:57.071Z,49.24
2022-07-28T07:27:24.342Z,49.63
2022-07-28T07:29:51.012Z,50.17
2022-07-28T07:32:17.518Z,49.71
2022-07-28T07:34:43.824Z,48.70
2022-07-28T07:37:10.352Z,48.87
2022-07-28T07:39:36.863Z,49.62
2022-07-28T07:42:03.196Z,48.21
2022-07-28T07:44:29.704Z,48.62
2022-07-28T07:46:56.218Z,47.90
2022-07-28T07:49:22.595Z,47.53
2022-07-28T07:51:49.043Z,47.74
2022-07-28T07:54:15.704Z,47.14
2022-07-28T07:56:42.266Z,46.78
2022-07-28T07:59:08.654Z,47.44
2022-07-28T08:01:35.036Z,47.03
2022-07-28T08:04:01.423Z,46.47
2022-07-28T08:06:29.773Z,46.63
2022-07-28T08:08:56.314Z,45.75
2022-07-28T08:11:22.952Z,44.88
2022-07-28T08:13:49.817Z,44.61
2022-07-28T08:16:16.271Z,43.79
2022-07-28T08:18:42.749Z,41.10
2022-07-28T08:21:09.084Z,41.89
2022-07-28T08:23:35.528Z,39.78
2022-07-28T08:26:02.144Z,38.35
2022-07-28T08:28:28.474Z,36.76
2022-07-28T08:30:54.938Z,37.51
2022-07-28T08:33:21.365Z,37.03
2022-07-28T08:35:48.790Z,37.48
2022-07-28T08:38:15.218Z,36.91
2022-07-28T08:40:45.684Z,35.84
2022-07-28T08:43:35.268Z,36.00
2022-07-28T08:46:03.670Z,35.90
2022-07-28T08:48:32.023Z,34.51
2022-07-28T08:51:06.233Z,34.17
2022-07-28T08:53:34.418Z,33.47
2022-07-28T08:56:14.767Z,34.02
2022-07-28T08:58:42.087Z,32.47
2022-07-28T09:01:09.431Z,32.89
2022-07-28T09:03:36.747Z,32.65
2022-07-28T09:06:03.445Z,31.93
2022-07-28T09:08:30.055Z,32.63
2022-07-28T09:10:56.465Z,30.43
2022-07-28T09:13:23.182Z,30.88
2022-07-28T09:15:49.962Z,30.03
2022-07-28T09:18:18.057Z,29.60
2022-07-28T09:20:45.580Z,29.73
2022-07-28T09:23:43.570Z,30.29
2022-07-28T09:26:11.028Z,29.32
2022-07-28T09:28:55.367Z,28.32
2022-07-28T09:31:24.069Z,28.67
2022-07-28T09:33:57.952Z,27.49
2022-07-28T09:36:24.472Z,27.87
2022-07-28T09:38:51.290Z,28.85
2022-07-28T09:41:17.745Z,27.77
2022-07-28T09:43:47.000Z,27.99
2022-07-28T09:46:21.769Z,27.85
2022-07-28T09:48:59.282Z,27.52
2022-07-28T09:51:28.084Z,27.09
2022-07-28T09:54:06.658Z,27.24
2022-07-28T09:56:33.496Z,25.89
2022-07-28T09:59:00.324Z,26.37
2022-07-28T10:01:31.189Z,27.23
2022-07-28T10:04:03.114Z,25.97
2022-07-28T10:06:31.856Z,26.40
2022-07-28T10:09:03.940Z,26.66
2022-07-28T10:11:30.556Z,26.88
2022-07-28T10:14:01.296Z,26.90
2022-07-28T10:16:30.407Z,26.53
2022-07-28T10:18:58.466Z,26.11
2022-07-28T10:21:26.656Z,26.33
2022-07-28T10:23:58.660Z,26.16
2022-07-28T10:26:29.118Z,25.84
2022-07-28T10:28:56.447Z,25.92
2022-07-28T10:31:46.481Z,25.41
2022-07-28T10:34:25.075Z,26.17
2022-07-28T10:36:56.075Z,25.90
2022-07-28T10:39:28.972Z,27.41
2022-07-28T10:41:56.492Z,26.36
2022-07-28T10:44:23.244Z,26.89
2022-07-28T10:46:50.413Z,26.64
2022-07-28T10:49:17.115Z,27.57
2022-07-28T10:52:02.421Z,27.88
2022-07-28T10:55:20.437Z,27.93
2022-07-28T10:58:11.883Z,28.26
2022-07-28T11:00:56.509Z,29.00
2022-07-28T11:03:42.236Z,28.85
2022-07-28T11:06:32.192Z,28.81
2022-07-28T11:09:18.139Z,29.40
2022-07-28T11:11:46.999Z,29.88
2022-07-28T11:14:25.317Z,29.85
2022-07-28T11:17:00.876Z,29.58
2022-07-28T11:20:06.919Z,30.28
2022-07-28T11:22:31.987Z,29.86
2022-07-28T11:24:59.255Z,30.06
2022-07-28T11:27:40.906Z,31.03
2022-07-28T11:30:32.787Z,31.35
2022-07-28T11:33:00.224Z,30.75
2022-07-28T11:35:46.868Z,29.98
2022-07-28T11:38:14.381Z,29.88
2022-07-28T11:40:48.737Z,30.91
2022-07-28T11:43:22.321Z,30.77
2022-07-28T11:46:12.159Z,30.29
2022-07-28T11:48:43.887Z,30.13
2022-07-28T11:51:11.523Z,31.07
2022-07-28T11:53:39.128Z,31.19
2022-07-28T11:56:07.877Z,31.11
2022-07-28T11:58:35.218Z,30.30
2022-07-28T12:01:23.904Z,30.71
2022-07-28T12:03:56.245Z,31.00
2022-07-28T12:06:35.347Z,31.80
2022-07-28T12:09:04.437Z,31.04
2022-07-28T12:11:48.666Z,30.77
2022-07-28T12:14:17.180Z,30.39
2022-07-28T12:16:45.742Z,29.71
2022-07-28T12:19:15.701Z,30.39
2022-07-28T12:21:49.264Z,31.08
2022-07-28T12:24:28.764Z,30.92
2022-07-28T12:26:56.549Z,30.55
2022-07-28T12:29:23.849Z,30.30
2022-07-28T12:31:56.162Z,30.44
2022-07-28T12:34:26.718Z,30.48
2022-07-28T12:36:58.121Z,29.83
2022-07-28T12:39:24.982Z,29.59
2022-07-28T12:42:06.148Z,30.63
2022-07-28T12:44:37.183Z,30.32
2022-07-28T12:47:05.156Z,30.02
2022-07-28T12:49:31.569Z,29.49
2022-07-28T12:51:58.189Z,29.53
2022-07-28T12:54:35.723Z,29.38
2022-07-28T12:57:02.137Z,29.49
2022-07-28T12:59:36.000Z,29.81
2022-07-28T13:02:03.047Z,30.10
2022-07-28T13:04:43.340Z,29.21
2022-07-28T13:07:16.191Z,29.33
2022-07-28T13:09:45.039Z,28.84
2022-07-28T13:12:21.452Z,28.92
2022-07-28T13:14:50.447Z,29.81
2022-07-28T13:17:16.792Z,30.03
2022-07-28T13:19:43.369Z,29.25
2022-07-28T13:22:09.680Z,29.97
2022-07-28T13:24:36.379Z,29.69
2022-07-28T13:27:03.570Z,28.64
2022-07-28T13:29:34.137Z,28.98
2022-07-28T13:32:00.708Z,28.33
2022-07-28T13:34:27.273Z,28.69
2022-07-28T13:36:53.668Z,28.82
2022-07-28T13:39:20.070Z,30.12
2022-07-28T13:41:56.383Z,29.17
2022-07-28T13:44:24.758Z,29.10
2022-07-28T13:46:51.192Z,28.84
2022-07-28T13:49:21.129Z,28.81
2022-07-28T13:51:48.506Z,28.18
2022-07-28T13:54:17.966Z,28.76
2022-07-28T13:56:45.459Z,28.58
2022-07-28T13:59:13.208Z,28.28
2022-07-28T14:01:40.775Z,28.52
2022-07-28T14:04:15.029Z,28.05
2022-07-28T14:06:44.047Z,28.20
2022-07-28T14:09:10.854Z,27.53
2022-07-28T14:11:38.273Z,28.07
2022-07-28T14:14:04.873Z,28.14
2022-07-28T14:16:31.694Z,28.29
2022-07-28T14:18:58.609Z,27.70
2022-07-28T14:21:25.119Z,28.12
2022-07-28T14:23:51.899Z,27.85
2022-07-28T14:26:35.325Z,27.50
2022-07-28T14:29:02.652Z,27.55
2022-07-28T14:31:29.316Z,27.39
2022-07-28T14:33:56.462Z,27.84
2022-07-28T14:36:22.913Z,28.63
2022-07-28T14:38:53.942Z,28.08
2022-07-28T14:41:20.967Z,28.05
2022-07-28T14:43:47.301Z,27.27
2022-07-28T14:46:19.221Z,27.92
2022-07-28T14:48:47.930Z,28.28
2022-07-28T14:51:14.664Z,28.54
2022-07-28T14:53:43.365Z,28.44
2022-07-28T14:56:18.302Z,28.44
2022-07-28T14:58:44.618Z,28.34
2022-07-28T15:01:11.059Z,28.19
2022-07-28T15:03:37.400Z,27.90
2022-07-28T15:06:04.267Z,27.50
2022-07-28T15:08:30.686Z,27.28
2022-07-28T15:10:57.242Z,28.01
2022-07-28T15:13:24.284Z,28.16
2022-07-28T15:15:50.734Z,27.25
2022-07-28T15:18:17.310Z,27.49
2022-07-28T15:20:43.650Z,27.67
2022-07-28T15:23:09.972Z,27.72
2022-07-28T15:25:37.329Z,27.49
2022-07-28T15:28:04.364Z,27.70
2022-07-28T15:30:30.945Z,27.96
2022-07-28T15:33:00.351Z,28.25
2022-07-28T15:35:26.805Z,27.87
2022-07-28T15:37:53.488Z,29.07
2022-07-28T15:40:20.086Z,28.29
2022-07-28T15:42:46.413Z,28.61
2022-07-28T15:45:12.737Z,28.13
2022-07-28T15:47:39.148Z,28.23
2022-07-28T15:50:06.140Z,28.46
2022-07-28T15:52:32.464Z,28.31
2022-07-28T15:54:59.062Z,28.25
2022-07-28T15:57:25.615Z,28.41
2022-07-28T16:00:06.181Z,28.68
2022-07-28T16:02:32.783Z,28.46
2022-07-28T16:04:59.367Z,28.76
2022-07-28T16:07:25.755Z,28.30
2022-07-28T16:09:53.673Z,28.43
2022-07-28T16:12:20.105Z,28.31
2022-07-28T16:14:46.445Z,27.94
2022-07-28T16:17:12.965Z,28.63
2022-07-28T16:19:49.026Z,28.08
2022-07-28T16:22:17.023Z,28.41
2022-07-28T16:24:43.633Z,28.38
2022-07-28T16:27:10.044Z,29.66
2022-07-28T16:29:37.956Z,28.34
2022-07-28T16:32:04.946Z,28.43
2022-07-28T16:34:31.333Z,28.56
2022-07-28T16:36:57.652Z,28.45
2022-07-28T16:39:23.980Z,29.21
2022-07-28T16:41:50.384Z,29.39
2022-07-28T16:44:17.427Z,28.85
2022-07-28T16:46:44.155Z,28.43
2022-07-28T16:49:10.939Z,28.55
2022-07-28T16:51:37.363Z,29.18
2022-07-28T16:54:04.049Z,29.49
2022-07-28T16:56:30.614Z,28.97
2022-07-28T16:58:57.089Z,28.48
2022-07-28T17:01:23.435Z,28.71
2022-07-28T17:03:49.903Z,29.05
2022-07-28T17:06:16.479Z,28.75
2022-07-28T17:08:42.791Z,28.09
2022-07-28T17:11:09.190Z,28.88
2022-07-28T17:13:35.871Z,28.76
2022-07-28T17:16:02.361Z,28.55
2022-07-28T17:18:29.084Z,28.78
2022-07-28T17:20:55.734Z,28.67
2022-07-28T17:23:22.072Z,29.05
2022-07-28T17:28:34.885Z,28.67
2022-07-28T17:31:01.515Z,28.88
2022-07-28T17:33:27.885Z,28.70
2022-07-28T17:35:57.763Z,29.00
2022-07-28T17:38:29.507Z,29.00
2022-07-28T17:40:59.902Z,28.79
2022-07-28T17:43:26.207Z,28.94
2022-07-28T17:45:53.094Z,28.86
2022-07-28T17:48:19.432Z,28.36
2022-07-28T17:50:45.751Z,28.46
2022-07-28T17:53:12.192Z,28.54
2022-07-28T17:56:00.874Z,28.64
2022-07-28T17:58:28.246Z,29.06
2022-07-28T18:00:57.628Z,29.06
2022-07-28T18:03:26.058Z,28.99
2022-07-28T18:05:52.511Z,29.16
2022-07-28T18:08:18.895Z,29.19
2022-07-28T18:10:46.978Z,29.35
2022-07-28T18:13:14.750Z,29.53
2022-07-28T18:15:41.472Z,30.15
2022-07-28T18:18:08.182Z,29.98
2022-07-28T18:20:35.072Z,30.00
2022-07-28T18:23:01.667Z,30.14
2022-07-28T18:28:18.484Z,30.13
2022-07-28T18:30:45.644Z,29.66
2022-07-28T18:33:12.362Z,30.04
2022-07-28T18:35:38.842Z,30.42
2022-07-28T18:38:06.462Z,30.71
2022-07-28T18:40:32.904Z,30.52
2022-07-28T18:42:59.546Z,30.80
2022-07-28T18:45:26.747Z,30.54
2022-07-28T18:47:53.296Z,30.66
2022-07-28T18:50:30.679Z,30.37
2022-07-28T18:52:58.892Z,30.57
2022-07-28T18:55:25.699Z,31.07
2022-07-28T18:57:52.307Z,30.85
2022-07-28T19:00:18.870Z,30.92
2022-07-28T19:02:45.331Z,30.97
2022-07-28T19:05:11.695Z,31.00
2022-07-28T19:07:38.183Z,31.16
2022-07-28T19:10:05.358Z,31.17
2022-07-28T19:12:31.800Z,31.25
2022-07-28T19:14:58.823Z,31.29
2022-07-28T19:17:26.202Z,31.60
2022-07-28T19:19:53.649Z,31.54
2022-07-28T19:22:19.962Z,31.58
2022-07-28T19:24:46.317Z,31.60
2022-07-28T19:27:12.714Z,31.59
2022-07-28T19:29:39.043Z,32.01
2022-07-28T19:32:05.918Z,32.37
2022-07-28T19:34:32.775Z,32.52
2022-07-28T19:36:59.166Z,32.72
2022-07-28T19:39:25.533Z,32.53
2022-07-28T19:41:52.102Z,32.29
2022-07-28T19:44:18.894Z,33.07
2022-07-28T19:46:45.394Z,32.78
2022-07-28T19:49:11.896Z,32.92
2022-07-28T19:51:38.982Z,32.81
2022-07-28T19:54:05.871Z,33.24
2022-07-28T19:56:32.203Z,33.33
2022-07-28T19:58:59.029Z,33.08
2022-07-28T20:01:25.478Z,33.49
2022-07-28T20:04:01.937Z,33.40
2022-07-28T20:06:30.830Z,33.87
2022-07-28T20:08:57.302Z,34.04
2022-07-28T20:11:24.093Z,33.85
2022-07-28T20:13:50.552Z,33.87
2022-07-28T20:16:17.611Z,34.55
2022-07-28T20:18:44.357Z,34.45
2022-07-28T20:21:10.815Z,34.81
2022-07-28T20:23:37.542Z,35.15
2022-07-28T20:26:03.933Z,34.84
2022-07-28T20:28:30.496Z,34.83
2022-07-28T20:30:57.235Z,34.94
2022-07-28T20:33:23.602Z,34.63
2022-07-28T20:35:53.239Z,35.28
2022-07-28T20:38:19.676Z,35.58
2022-07-28T20:40:45.992Z,35.61
2022-07-28T20:43:12.381Z,34.96
2022-07-28T20:45:38.761Z,35.09
2022-07-28T20:48:05.681Z,35.30
2022-07-28T20:50:32.147Z,35.03
2022-07-28T20:52:58.501Z,35.58
2022-07-28T20:55:32.117Z,35.60
2022-07-28T20:57:58.438Z,35.39
2022-07-28T21:00:25.188Z,35.48
2022-07-28T21:02:52.235Z,35.33
2022-07-28T21:05:26.575Z,35.36
2022-07-28T21:08:05.956Z,35.51
2022-07-28T21:10:35.388Z,35.54
2022-07-28T21:13:01.800Z,35.50
2022-07-28T21:15:28.162Z,35.92
2022-07-28T21:17:54.554Z,35.83
2022-07-28T21:20:20.955Z,35.98
2022-07-28T21:22:47.372Z,36.29
2022-07-28T21:25:13.962Z,36.24
2022-07-28T21:27:41.144Z,36.15
2022-07-28T21:30:08.143Z,36.47
2022-07-28T21:32:34.559Z,36.29
2022-07-28T21:35:00.876Z,36.30
2022-07-28T21:37:27.206Z,36.36
2022-07-28T21:39:53.593Z,36.84
2022-07-28T21:42:19.919Z,36.78
2022-07-28T21:44:46.348Z,36.25
2022-07-28T21:47:12.732Z,36.09
2022-07-28T21:49:39.289Z,35.96
2022-07-28T21:52:05.609Z,36.00
2022-07-28T21:54:32.020Z,36.21
2022-07-28T21:56:58.386Z,35.97
2022-07-28T21:59:24.965Z,36.32
2022-07-28T22:01:51.355Z,36.51
2022-07-28T22:04:18.040Z,36.33
2022-07-28T22:06:46.543Z,36.81
2022-07-28T22:09:13.902Z,37.05
2022-07-28T22:11:40.262Z,36.56
2022-07-28T22:14:06.675Z,36.63
2022-07-28T22:16:33.058Z,36.66
2022-07-28T22:18:59.514Z,36.42
2022-07-28T22:21:26.094Z,37.09
2022-07-28T22:23:52.428Z,37.01
2022-07-28T22:26:18.833Z,36.97
2022-07-28T22:28:45.153Z,37.00
2022-07-28T22:31:11.533Z,37.70
2022-07-28T22:33:38.701Z,37.42
2022-07-28T22:36:06.658Z,37.48
2022-07-28T22:38:33.209Z,37.92
2022-07-28T22:40:59.688Z,37.62
2022-07-28T22:43:26.079Z,37.73
2022-07-28T22:45:52.642Z,38.07
2022-07-28T22:48:19.123Z,37.96
2022-07-28T22:50:45.471Z,38.24
2022-07-28T22:53:11.886Z,38.35
2022-07-28T22:55:39.898Z,38.28
2022-07-28T22:58:06.480Z,38.70
2022-07-28T23:00:32.877Z,38.50
2022-07-28T23:03:02.886Z,38.52
2022-07-28T23:05:30.401Z,38.89
2022-07-28T23:07:58.959Z,38.86
2022-07-28T23:10:26.062Z,38.99
2022-07-28T23:12:52.397Z,39.02
2022-07-28T23:15:18.787Z,38.85
2022-07-28T23:17:45.110Z,39.37
2022-07-28T23:20:11.664Z,39.44
2022-07-28T23:22:38.225Z,39.85
2022-07-28T23:25:05.144Z,40.07
2022-07-28T23:27:31.529Z,40.03
2022-07-28T23:29:57.867Z,40.30
2022-07-28T23:32:24.298Z,40.57
2022-07-28T23:34:50.691Z,40.83
2022-07-28T23:37:17.114Z,40.84
2022-07-28T23:39:43.702Z,41.00
2022-07-28T23:42:10.262Z,41.33
2022-07-28T23:44:37.855Z,41.61
2022-07-28T23:47:04.351Z,41.30
2022-07-28T23:49:30.760Z,41.97
2022-07-28T23:51:57.468Z,41.62
2022-07-28T23:54:23.863Z,41.48
2022-07-28T23:56:51.790Z,41.87
2022-07-28T23:59:18.304Z,42.24
